Malvern, OH (44644)

8:05 PM EST on December 24, 2014 (GMT -0500)
Village of East Canton | Change Station
CLOSE
Current Station
Personal Weather Station
Location: East Canton, OH
Elevation: 1155 ft
Nearby Weather Stations
Active Advisory: Wind Advisory

Elev 1155 ft 40.79 °N, 81.29 °W | Updated 2 seconds ago

Overcast
Overcast
50.0 °F
Feels Like 45 °F
N
13.0
Wind Variable Wind from West
Gusts 18.3 mph

Today
High -- | Low -- °F
--% Chance of Precip.
Yesterday
High -- | Low -- °F
Precip. -- in
7:46 AM 5:02 PM
Waxing Crescent, 12% visible
Pressure 29.42 in
Visibility 10.0 miles
Clouds Overcast 6500 ft
Windchill 45 °F
Dew Point 45 °F
Humidity 83%
Rainfall 0.13 in
Snow Depth Not available.
UV 0 out of 12
Pollen .10 out of 12
Air Quality Not available.
Flu Activity Not available.
METAR KPHD 250053Z AUTO 25013G22KT 10SM -RA OVC065 11/07 A2941 RMK AO2 WSHFT 2347 RAE02B13 SLP960 P0004 T01110072

More Conditions Fewer Conditions

Pressure 29.42 in
Visibility 10.0 miles
Clouds Overcast 6500 ft
Windchill 45 °F
Dew Point 45 °F
Humidity 83%
Rainfall 0.13 in
Snow Depth Not available.
UV 0 out of 12
Pollen .10 out of 12
Air Quality Not available.
Flu Activity Not available.
METAR KPHD 250053Z AUTO 25013G22KT 10SM -RA OVC065 11/07 A2941 RMK AO2 WSHFT 2347 RAE02B13 SLP960 P0004 T01110072

More Conditions Fewer Conditions

10-Day Weather Forecast

Almanac

Astronomy

Dec. 24, 2014 Rise Set
Actual Time
Civil Twilight
Nautical Twilight
Astronomical Twilight
Moon
Length of Visible Light
Length of Day
Tomorrow will be .
, % of the Moon is Illuminated

Today's Extremes

State Highs State Lows

Community

WunderPhotos

Upload Photos

1,780,199 photos uploaded!

WunderBlogs® & News

Nearby

Air Quality

  Air Quality AQ Index Pollutant
Not available.

Snow Depth

Station Depth Elevation

Earthquake Activity

City Distance Mag. Time & Date
Minimum magnitude displayed is 2.5.

Coastal Water Temperatures

Place Temperature

Nearby Weather Stations